METAR Data
IDs: Format: Raw Decoded Include TAF

Data at: 1243 UTC 23 Sep 2018

KPTK 231153Z 00000KT 5SM BCFG BR FEW200 08/07 A3023 RMK AO2 SLP239 T00780067 10089 20072 51007
KPTK 231053Z 00000KT 4SM BCFG BR FEW200 07/07 A3022 RMK AO2 SLP235 T00720067
KPTK 230953Z COR 00000KT 3SM BCFG BR CLR 08/07 A3023 RMK AO2 SLP237 T00780067
KPTK 230853Z AUTO 00000KT 4SM BR CLR 08/08 A3021 RMK AO2 SLP231 T00830078 55004
KPTK 230835Z AUTO 01004KT 5SM BR SCT001 08/07 A3021 RMK AO2 T00780072
KPTK 230808Z AUTO 00000KT 4SM BR BKN001 07/07 A3020 RMK AO2 T00720067
KPTK 230800Z AUTO 00000KT 5SM BR SCT001 08/07 A3021 RMK AO2 T00780072
KPTK 230753Z AUTO 00000KT 4SM BR CLR 08/07 A3020 RMK AO2 SLP229 T00780072
KPTK 230653Z AUTO 00000KT 4SM BR CLR 08/07 A3022 RMK AO2 SLP236 T00780067
KPTK 230553Z AUTO 00000KT 8SM CLR 09/07 A3022 RMK AO2 SLP235 T00890072 10144 20083 58003
KPTK 230453Z AUTO 00000KT 6SM BR CLR 09/08 A3023 RMK AO2 SLP239 T00940078 401720089
KPTK 230353Z 00000KT 6SM BR CLR 09/08 A3023 RMK AO2 SLP238 LAST T00940083
KPTK 230253Z 16003KT 9SM FEW250 10/09 A3023 RMK AO2 SLP240 T01000089 53001
KPTK 230153Z 00000KT 10SM FEW250 11/09 A3023 RMK AO2 SLP238 T01060089
KPTK 230053Z 18003KT 10SM FEW250 13/08 A3023 RMK AO2 SLP239 T01280083
KPTK 222353Z 00000KT 10SM SCT250 14/08 A3023 RMK AO2 SLP238 T01440078 10172 20144 56004
KPTK 222253Z 20004KT 10SM FEW040 BKN250 16/07 A3023 RMK AO2 SLP238 T01560072
KPTK 222153Z 21005KT 10SM FEW042 BKN250 16/07 A3023 RMK AO2 SLP238 T01610067
KPTK 222053Z 00000KT 10SM FEW042 BKN250 16/07 A3024 RMK AO2 SLP242 T01560067 56019
KPTK 221953Z 00000KT 10SM SCT042 BKN250 17/07 A3026 RMK AO2 SLP246 T01720072
KPTK 221853Z 07005KT 10SM BKN039 BKN250 16/07 A3028 RMK AO2 SLP253 T01560067
KPTK 221753Z 00000KT 10SM BKN034 BKN250 15/06 A3030 RMK AO2 SLP261 T01500061 10161 20100 56011
KPTK 221653Z VRB06KT 10SM BKN032 BKN250 16/08 A3031 RMK AO2 SLP262 BKN032 V SCT T01610078
KPTK 221553Z 04009KT 10SM FEW027 FEW210 BKN250 14/07 A3032 RMK AO2 SLP267 T01440072
KPTK 221453Z 02009KT 10SM FEW030 FEW210 SCT250 12/06 A3033 RMK AO2 SLP272 T01220061 53008
KPTK 221353Z 35010KT 10SM FEW035 BKN210 BKN250 12/06 A3032 RMK AO2 SLP268 T01170061
KPTK 221253Z 36009KT 10SM FEW040 BKN180 BKN220 11/06 A3031 RMK AO2 SLP265 T01060056
KPTK 221153Z 35007KT 10SM SCT025 SCT040 BKN180 10/05 A3031 RMK AO2 SLP264 T01000050 10133 20100 51018
KPTK 221144Z 36006KT 10SM SCT025 SCT040 BKN180 10/05 A3030 RMK AO2 T01000050
KPTK 221053Z 02009KT 10SM OVC026 11/06 A3029 RMK AO2 SLP255 T01060061
KPTK 221044Z 01008KT 10SM OVC028 11/06 A3029 RMK AO2 T01060056
KPTK 220953Z 35007KT 10SM BKN033 11/06 A3028 RMK AO2 SLP252 T01060056
KPTK 220853Z AUTO 35009KT 10SM FEW030 11/06 A3025 RMK AO2 SLP242 T01060056 51019
KPTK 220753Z AUTO 34010KT 10SM OVC032 12/07 A3023 RMK AO2 SLP234 T01170067
KPTK 220653Z AUTO 33009KT 10SM FEW035 12/06 A3022 RMK AO2 SLP231 T01170061
KPTK 220553Z AUTO 35015G20KT 10SM BKN032 13/07 A3020 RMK AO2 SLP220 T01330067 10189 20133 53015
KPTK 220522Z AUTO 34012G18KT 10SM SCT026 OVC037 14/08 A3018 RMK AO2 T01390078
KPTK 220453Z AUTO 31006KT 10SM BKN026 BKN030 14/09 A3017 RMK AO2 SLP213 T01390089 402720139
KPTK 220450Z AUTO 32006KT 10SM BKN026 14/09 A3017 RMK AO2
KPTK 220353Z 32015G19KT 10SM FEW030 BKN050 BKN240 15/08 A3015 RMK AO2 PK WND 31027/0323 SLP205 LAST T01500078
KPTK 220253Z 30013G22KT 10SM BKN030 BKN055 17/11 A3010 RMK AO2 SLP188 T01670111 51041
KPTK 220153Z 29014KT 10SM FEW170 BKN240 17/11 A3007 RMK AO2 SLP177 T01670106
KPTK 220053Z 29013KT 10SM FEW055 SCT170 BKN240 17/10 A3002 RMK AO2 PK WND 30028/2356 SLP160 T01720100